createdAt,value
2019-06-01T00:01:07.250Z,61.00
2019-06-01T00:03:40.258Z,61.00
2019-06-01T00:06:16.699Z,61.00
2019-06-01T00:08:49.305Z,60.90
2019-06-01T00:11:21.235Z,60.90
2019-06-01T00:13:53.451Z,60.60
2019-06-01T00:16:25.672Z,60.90
2019-06-01T00:19:00.505Z,60.90
2019-06-01T00:21:32.416Z,61.80
2019-06-01T00:24:05.093Z,61.10
2019-06-01T00:26:37.578Z,61.20
2019-06-01T00:29:09.444Z,61.10
2019-06-01T00:31:42.955Z,61.10
2019-06-01T00:34:15.382Z,61.00
2019-06-01T00:36:47.806Z,61.10
2019-06-01T00:39:20.135Z,61.10
2019-06-01T00:41:52.629Z,62.00
2019-06-01T00:44:25.068Z,61.30
2019-06-01T00:46:57.163Z,61.40
2019-06-01T00:49:30.017Z,61.10
2019-06-01T00:52:02.015Z,61.10
2019-06-01T00:54:34.208Z,61.30
2019-06-01T00:57:06.819Z,61.90
2019-06-01T00:59:39.076Z,61.50
2019-06-01T01:02:10.920Z,61.30
2019-06-01T01:04:44.163Z,61.10
2019-06-01T01:07:18.931Z,61.30
2019-06-01T01:09:51.486Z,61.60
2019-06-01T01:12:23.713Z,62.00
2019-06-01T01:14:55.858Z,62.30
2019-06-01T01:17:27.697Z,62.40
2019-06-01T01:19:59.635Z,63.00
2019-06-01T01:22:31.968Z,61.80
2019-06-01T01:25:05.039Z,61.40
2019-06-01T01:27:36.963Z,61.30
2019-06-01T01:30:09.180Z,61.30
2019-06-01T01:32:41.295Z,61.00
2019-06-01T01:35:13.555Z,60.90
2019-06-01T01:37:45.746Z,61.00
2019-06-01T01:40:17.665Z,61.00
2019-06-01T01:42:50.570Z,61.80
2019-06-01T01:45:22.642Z,61.10
2019-06-01T01:47:55.072Z,61.00
2019-06-01T01:50:27.995Z,60.60
2019-06-01T01:53:00.232Z,60.40
2019-06-01T01:55:32.397Z,60.40
2019-06-01T01:58:04.441Z,60.60
2019-06-01T02:00:46.957Z,60.60
2019-06-01T02:03:18.811Z,60.90
2019-06-01T02:05:51.154Z,61.30
2019-06-01T02:08:23.050Z,60.60
2019-06-01T02:10:55.434Z,60.50
2019-06-01T02:13:27.259Z,60.60
2019-06-01T02:16:00.543Z,60.70
2019-06-01T02:18:33.077Z,60.70
2019-06-01T02:21:05.071Z,61.00
2019-06-01T02:23:37.255Z,61.30
2019-06-01T02:26:09.594Z,61.00
2019-06-01T02:28:41.442Z,60.80
2019-06-01T02:31:13.343Z,60.50
2019-06-01T02:33:45.196Z,60.50
2019-06-01T02:36:17.078Z,60.50
2019-06-01T02:38:48.930Z,60.80
2019-06-01T02:41:21.231Z,61.00
2019-06-01T02:43:54.751Z,61.10
2019-06-01T02:46:27.423Z,61.30
2019-06-01T02:49:01.910Z,60.80
2019-06-01T02:51:34.097Z,60.50
2019-06-01T02:54:07.034Z,60.20
2019-06-01T02:56:39.188Z,60.30
2019-06-01T02:59:11.320Z,60.30
2019-06-01T03:01:56.009Z,60.10
2019-06-01T03:04:17.121Z,59.90
2019-06-01T03:06:50.220Z,59.60
2019-06-01T03:09:23.857Z,59.40
2019-06-01T03:12:00.344Z,59.30
2019-06-01T03:14:34.679Z,59.60
2019-06-01T03:17:07.892Z,60.00
2019-06-01T03:19:41.784Z,60.30
2019-06-01T03:22:16.250Z,60.30
2019-06-01T03:24:48.568Z,60.30
2019-06-01T03:27:23.189Z,60.20
2019-06-01T03:29:57.433Z,60.30
2019-06-01T03:32:36.909Z,60.50
2019-06-01T03:35:03.213Z,60.60
2019-06-01T03:37:35.883Z,60.50
2019-06-01T03:40:15.820Z,60.50
2019-06-01T03:42:42.071Z,60.20
2019-06-01T03:45:14.149Z,60.10
2019-06-01T03:47:46.077Z,59.90
2019-06-01T03:50:18.321Z,59.80
2019-06-01T03:52:50.187Z,59.80
2019-06-01T03:55:22.345Z,59.50
2019-06-01T03:57:54.703Z,59.50
2019-06-01T04:00:26.857Z,59.80
2019-06-01T04:02:58.777Z,60.00
2019-06-01T04:05:30.641Z,60.00
2019-06-01T04:08:03.470Z,59.90
2019-06-01T04:10:35.590Z,59.90
2019-06-01T04:13:07.599Z,59.80
2019-06-01T04:15:39.495Z,59.60
2019-06-01T04:18:13.879Z,59.60
2019-06-01T04:20:45.320Z,59.60
2019-06-01T04:23:17.202Z,59.80
2019-06-01T04:25:49.046Z,59.80
2019-06-01T04:28:21.472Z,59.70
2019-06-01T04:30:53.607Z,59.90
2019-06-01T04:33:25.494Z,59.80
2019-06-01T04:35:57.325Z,59.70
2019-06-01T04:38:29.217Z,59.40
2019-06-01T04:41:01.396Z,59.20
2019-06-01T04:43:33.598Z,59.00
2019-06-01T04:46:06.149Z,58.60
2019-06-01T04:48:38.470Z,58.80
2019-06-01T04:51:12.144Z,58.40
2019-06-01T04:53:44.751Z,58.30
2019-06-01T04:56:16.578Z,58.30
2019-06-01T04:58:48.995Z,58.20
2019-06-01T05:01:21.434Z,58.10
2019-06-01T05:03:54.459Z,58.40
2019-06-01T05:06:26.313Z,59.10
2019-06-01T05:08:58.564Z,58.20
2019-06-01T05:11:30.952Z,58.10
2019-06-01T05:14:03.367Z,58.00
2019-06-01T05:16:35.588Z,57.90
2019-06-01T05:19:08.060Z,58.10
2019-06-01T05:21:40.235Z,58.10
2019-06-01T05:24:12.715Z,57.90
2019-06-01T05:26:44.889Z,57.90
2019-06-01T05:29:18.132Z,58.00
2019-06-01T05:31:50.277Z,57.90
2019-06-01T05:34:22.333Z,57.90
2019-06-01T05:36:54.476Z,57.70
2019-06-01T05:39:26.385Z,57.50
2019-06-01T05:41:58.530Z,57.10
2019-06-01T05:44:31.319Z,56.90
2019-06-01T05:47:03.500Z,56.60
2019-06-01T05:49:35.755Z,56.30
2019-06-01T05:52:08.093Z,56.10
2019-06-01T05:54:40.257Z,55.40
2019-06-01T05:57:12.886Z,54.90
2019-06-01T05:59:45.069Z,55.00
2019-06-01T06:02:17.523Z,54.90
2019-06-01T06:04:49.675Z,54.90
2019-06-01T06:07:21.394Z,55.10
2019-06-01T06:09:53.544Z,55.20
2019-06-01T06:12:25.473Z,54.40
2019-06-01T06:14:57.656Z,54.00
2019-06-01T06:17:29.545Z,53.30
2019-06-01T06:20:02.436Z,51.60
2019-06-01T06:22:34.838Z,51.10
2019-06-01T06:25:07.354Z,51.30
2019-06-01T06:27:39.277Z,50.80
2019-06-01T06:30:12.732Z,51.30
2019-06-01T06:32:44.782Z,50.80
2019-06-01T06:35:17.402Z,50.30
2019-06-01T06:37:50.054Z,50.20
2019-06-01T06:40:24.342Z,48.20
2019-06-01T06:42:56.474Z,48.00
2019-06-01T06:45:29.418Z,47.30
2019-06-01T06:48:01.561Z,46.80
2019-06-01T06:50:34.180Z,46.30
2019-06-01T06:53:06.294Z,46.60
2019-06-01T06:55:39.797Z,46.20
2019-06-01T06:58:11.587Z,45.10
2019-06-01T07:00:43.518Z,44.50
2019-06-01T07:03:16.805Z,44.00
2019-06-01T07:05:48.922Z,43.30
2019-06-01T07:08:21.761Z,42.80
2019-06-01T07:10:53.870Z,41.40
2019-06-01T07:13:26.031Z,40.80
2019-06-01T07:15:58.213Z,39.90
2019-06-01T07:18:33.136Z,39.60
2019-06-01T07:21:08.136Z,38.80
2019-06-01T07:23:40.403Z,36.60
2019-06-01T07:26:12.604Z,36.90
2019-06-01T07:28:46.122Z,36.00
2019-06-01T07:31:20.105Z,37.30
2019-06-01T07:33:53.113Z,37.00
2019-06-01T07:36:26.977Z,37.50
2019-06-01T07:39:00.003Z,35.00
2019-06-01T07:41:33.037Z,34.50
2019-06-01T07:44:05.331Z,34.00
2019-06-01T07:46:37.327Z,32.30
2019-06-01T07:49:09.534Z,33.90
2019-06-01T07:51:42.136Z,32.60
2019-06-01T07:54:14.067Z,33.10
2019-06-01T07:56:46.304Z,32.50
2019-06-01T07:59:18.552Z,31.80
2019-06-01T08:01:51.025Z,31.50
2019-06-01T08:04:24.705Z,31.20
2019-06-01T08:06:57.528Z,32.60
2019-06-01T08:09:29.851Z,31.90
2019-06-01T08:12:02.529Z,33.40
2019-06-01T08:14:34.635Z,30.60
2019-06-01T08:17:06.782Z,30.40
2019-06-01T08:19:38.898Z,30.40
2019-06-01T08:22:12.597Z,30.50
2019-06-01T08:24:44.529Z,29.90
2019-06-01T08:27:16.434Z,29.90
2019-06-01T08:29:48.673Z,29.60
2019-06-01T08:32:22.610Z,31.80
2019-06-01T08:35:07.941Z,28.80
2019-06-01T08:37:29.843Z,29.40
2019-06-01T08:40:02.124Z,31.10
2019-06-01T08:42:34.088Z,28.40
2019-06-01T08:45:06.709Z,27.60
2019-06-01T08:47:39.112Z,27.90
2019-06-01T08:50:11.753Z,27.50
2019-06-01T08:52:43.759Z,27.00
2019-06-01T08:55:17.414Z,27.70
2019-06-01T08:57:49.434Z,27.40
2019-06-01T09:00:21.246Z,26.90
2019-06-01T09:02:53.115Z,26.50
2019-06-01T09:05:26.787Z,28.30
2019-06-01T09:07:58.862Z,26.50
2019-06-01T09:10:31.434Z,27.20
2019-06-01T09:13:03.516Z,26.70
2019-06-01T09:15:36.244Z,27.30
2019-06-01T09:18:08.121Z,27.10
2019-06-01T09:20:40.624Z,27.00
2019-06-01T09:23:13.286Z,25.10
2019-06-01T09:25:45.527Z,25.50
2019-06-01T09:28:17.458Z,25.40
2019-06-01T09:30:49.286Z,25.60
2019-06-01T09:33:21.871Z,25.10
2019-06-01T09:35:56.541Z,24.70
2019-06-01T09:38:31.595Z,24.60
2019-06-01T09:41:05.044Z,25.70
2019-06-01T09:43:37.517Z,24.50
2019-06-01T09:46:09.679Z,24.50
2019-06-01T09:48:41.587Z,25.20
2019-06-01T09:51:13.909Z,24.70
2019-06-01T09:53:45.806Z,25.10
2019-06-01T09:56:17.972Z,25.00
2019-06-01T09:58:50.163Z,24.90
2019-06-01T10:01:22.802Z,26.10
2019-06-01T10:03:55.242Z,27.10
2019-06-01T10:06:28.371Z,24.70
2019-06-01T10:09:00.638Z,25.10
2019-06-01T10:11:34.227Z,24.50
2019-06-01T10:14:06.681Z,25.60
2019-06-01T10:16:39.040Z,24.30
2019-06-01T10:19:11.518Z,25.80
2019-06-01T10:21:43.861Z,25.60
2019-06-01T10:24:16.153Z,25.30
2019-06-01T10:26:48.041Z,24.40
2019-06-01T10:29:20.680Z,25.90
2019-06-01T10:31:52.554Z,26.10
2019-06-01T10:34:24.981Z,25.10
2019-06-01T10:36:58.209Z,23.40
2019-06-01T10:39:31.223Z,25.60
2019-06-01T10:42:03.574Z,25.00
2019-06-01T10:44:41.388Z,24.50
2019-06-01T10:47:09.858Z,22.90
2019-06-01T10:49:42.466Z,22.50
2019-06-01T10:52:14.566Z,22.60
2019-06-01T10:54:46.869Z,23.20
2019-06-01T10:57:18.697Z,22.70
2019-06-01T10:59:52.189Z,22.70
2019-06-01T11:02:24.702Z,24.40
2019-06-01T11:04:56.585Z,24.00
2019-06-01T11:07:29.035Z,21.20
2019-06-01T11:10:01.019Z,21.50
2019-06-01T11:12:33.121Z,21.00
2019-06-01T11:15:05.525Z,21.60
2019-06-01T11:17:37.385Z,20.80
2019-06-01T11:20:10.007Z,20.50
2019-06-01T11:22:43.737Z,20.50
2019-06-01T11:25:15.638Z,20.20
2019-06-01T11:27:47.522Z,21.20
2019-06-01T11:30:21.608Z,19.90
2019-06-01T11:32:54.093Z,20.00
2019-06-01T11:35:26.529Z,20.20
2019-06-01T11:37:58.831Z,21.40
2019-06-01T11:40:32.024Z,19.40
2019-06-01T11:43:05.007Z,19.60
2019-06-01T11:45:37.168Z,19.40
2019-06-01T11:48:09.566Z,18.80
2019-06-01T11:50:43.010Z,19.20
2019-06-01T11:53:15.720Z,18.30
2019-06-01T11:55:48.195Z,18.00
2019-06-01T11:58:20.057Z,18.40
2019-06-01T12:00:51.933Z,17.90
2019-06-01T12:03:24.087Z,18.40
2019-06-01T12:05:56.766Z,18.30
2019-06-01T12:08:33.796Z,20.30
2019-06-01T12:11:03.526Z,18.30
2019-06-01T12:13:36.029Z,17.80
2019-06-01T12:16:08.228Z,17.90
2019-06-01T12:18:40.610Z,16.00
2019-06-01T12:21:12.797Z,18.60
2019-06-01T12:23:45.693Z,15.80
2019-06-01T12:26:20.624Z,16.30
2019-06-01T12:28:52.743Z,16.50
2019-06-01T12:31:25.216Z,16.80
2019-06-01T12:33:57.477Z,16.90
2019-06-01T12:36:29.888Z,17.20
2019-06-01T12:39:01.723Z,16.60
2019-06-01T12:41:33.690Z,17.20
2019-06-01T12:44:15.818Z,16.70
2019-06-01T12:46:49.007Z,15.20
2019-06-01T12:49:21.085Z,15.40
2019-06-01T12:51:53.403Z,14.70
2019-06-01T12:54:25.308Z,14.20
2019-06-01T12:56:57.509Z,14.10
2019-06-01T12:59:29.345Z,15.20
2019-06-01T13:02:01.619Z,15.80
2019-06-01T13:04:34.248Z,15.00
2019-06-01T13:07:06.882Z,13.90
2019-06-01T13:09:39.325Z,14.10
2019-06-01T13:12:11.157Z,13.30
2019-06-01T13:14:43.386Z,13.60
2019-06-01T13:17:15.872Z,13.90
2019-06-01T13:19:48.008Z,15.20
2019-06-01T13:22:20.934Z,16.10
2019-06-01T13:24:53.263Z,16.40
2019-06-01T13:27:25.255Z,16.60
2019-06-01T13:29:57.569Z,15.80
2019-06-01T13:32:29.731Z,15.50
2019-06-01T13:35:02.117Z,14.70
2019-06-01T13:37:34.333Z,14.30
2019-06-01T13:40:06.322Z,15.00
2019-06-01T13:42:38.209Z,14.20
2019-06-01T13:45:10.387Z,14.30
2019-06-01T13:47:43.421Z,14.70
2019-06-01T13:50:16.011Z,14.90
2019-06-01T13:52:48.092Z,15.60
2019-06-01T13:55:19.920Z,14.40
2019-06-01T13:57:52.460Z,13.90
2019-06-01T14:00:30.225Z,15.10
2019-06-01T14:02:58.717Z,14.20
2019-06-01T14:05:31.352Z,13.70
2019-06-01T14:08:04.038Z,14.00
2019-06-01T14:10:35.913Z,13.20
2019-06-01T14:13:07.792Z,12.70
2019-06-01T14:15:39.629Z,13.20
2019-06-01T14:18:12.241Z,13.90
2019-06-01T14:20:45.513Z,14.30
2019-06-01T14:23:18.185Z,14.40
2019-06-01T14:25:50.238Z,14.10
2019-06-01T14:28:22.360Z,14.30
2019-06-01T14:30:54.385Z,13.80
2019-06-01T14:33:26.489Z,13.30
2019-06-01T14:35:58.659Z,14.10
2019-06-01T14:38:45.978Z,14.60
2019-06-01T14:41:04.206Z,16.00
2019-06-01T14:43:36.531Z,16.20
2019-06-01T14:46:08.773Z,17.20
2019-06-01T14:48:41.282Z,17.90
2019-06-01T14:51:14.077Z,18.50
2019-06-01T14:53:47.510Z,19.30
2019-06-01T14:56:19.614Z,18.70
2019-06-01T14:58:51.972Z,18.90
2019-06-01T15:01:32.606Z,19.50
2019-06-01T15:03:58.407Z,19.20
2019-06-01T15:06:31.296Z,20.30
2019-06-01T15:09:17.953Z,17.70
2019-06-01T15:11:37.247Z,17.40
2019-06-01T15:14:09.431Z,18.30
2019-06-01T15:16:41.543Z,17.20
2019-06-01T15:19:15.058Z,17.30
2019-06-01T15:21:47.055Z,18.00
2019-06-01T15:24:19.236Z,17.70
2019-06-01T15:26:52.450Z,17.70
2019-06-01T15:29:24.960Z,18.00
2019-06-01T15:31:58.043Z,17.50
2019-06-01T15:34:30.191Z,17.20
2019-06-01T15:37:02.400Z,16.20
2019-06-01T15:39:34.746Z,15.10
2019-06-01T15:42:06.682Z,15.90
2019-06-01T15:44:38.605Z,16.90
2019-06-01T15:47:11.564Z,16.50
2019-06-01T15:49:44.072Z,16.50
2019-06-01T15:52:16.079Z,16.00
2019-06-01T15:54:49.615Z,15.40
2019-06-01T15:57:22.051Z,15.60
2019-06-01T15:59:54.560Z,16.10
2019-06-01T16:02:27.255Z,16.60
2019-06-01T16:05:01.295Z,17.10
2019-06-01T16:07:33.322Z,18.10
2019-06-01T16:10:08.032Z,17.90
2019-06-01T16:12:39.178Z,17.90
2019-06-01T16:15:11.253Z,18.20
2019-06-01T16:17:43.508Z,17.70
2019-06-01T16:20:16.786Z,17.90
2019-06-01T16:22:49.137Z,17.90
2019-06-01T16:25:21.671Z,17.20
2019-06-01T16:27:54.589Z,17.20
2019-06-01T16:30:26.934Z,17.60
2019-06-01T16:32:58.816Z,17.80
2019-06-01T16:35:30.849Z,18.40
2019-06-01T16:38:04.070Z,18.60
2019-06-01T16:40:37.047Z,19.40
2019-06-01T16:43:09.733Z,20.00
2019-06-01T16:45:42.320Z,20.50
2019-06-01T16:48:14.822Z,21.40
2019-06-01T16:50:47.515Z,21.80
2019-06-01T16:53:19.953Z,22.20
2019-06-01T16:55:52.258Z,22.80
2019-06-01T16:58:24.641Z,23.70
2019-06-01T17:00:58.518Z,22.30
2019-06-01T17:03:30.731Z,22.90
2019-06-01T17:06:03.258Z,23.60
2019-06-01T17:08:35.108Z,23.00
2019-06-01T17:11:07.539Z,22.90
2019-06-01T17:13:39.885Z,22.30
2019-06-01T17:16:11.800Z,22.80
2019-06-01T17:18:43.936Z,23.40
2019-06-01T17:21:15.885Z,23.40
2019-06-01T17:23:48.114Z,23.70
2019-06-01T17:26:20.740Z,24.00
2019-06-01T17:28:53.028Z,24.30
2019-06-01T17:31:25.248Z,24.20
2019-06-01T17:33:58.332Z,24.20
2019-06-01T17:36:31.345Z,24.90
2019-06-01T17:39:03.934Z,24.60
2019-06-01T17:41:36.231Z,25.20
2019-06-01T17:44:09.005Z,25.70
2019-06-01T17:46:52.918Z,26.10
2019-06-01T17:49:14.861Z,26.70
2019-06-01T17:51:48.565Z,28.30
2019-06-01T17:54:20.427Z,30.90
2019-06-01T17:56:52.407Z,31.70
2019-06-01T17:59:24.871Z,31.90
2019-06-01T18:01:57.061Z,31.30
2019-06-01T18:04:28.994Z,31.70
2019-06-01T18:07:01.766Z,32.10
2019-06-01T18:09:34.053Z,32.70
2019-06-01T18:12:06.233Z,32.90
2019-06-01T18:14:38.817Z,32.40
2019-06-01T18:17:12.160Z,33.30
2019-06-01T18:19:44.846Z,33.60
2019-06-01T18:22:17.754Z,33.90
2019-06-01T18:24:50.460Z,34.60
2019-06-01T18:27:23.208Z,35.00
2019-06-01T18:29:56.506Z,35.20
2019-06-01T18:32:28.699Z,35.80
2019-06-01T18:35:01.222Z,36.30
2019-06-01T18:37:33.574Z,37.00
2019-06-01T18:40:05.679Z,37.60
2019-06-01T18:42:39.491Z,37.80
2019-06-01T18:45:13.550Z,38.20
2019-06-01T18:47:46.453Z,38.50
2019-06-01T18:50:18.595Z,39.00
2019-06-01T18:52:51.129Z,39.50
2019-06-01T18:55:23.057Z,39.90
2019-06-01T18:57:57.445Z,40.20
2019-06-01T19:00:29.434Z,40.60
2019-06-01T19:03:02.072Z,40.50
2019-06-01T19:05:34.602Z,41.00
2019-06-01T19:08:07.158Z,41.40
2019-06-01T19:10:39.672Z,41.80
2019-06-01T19:13:12.340Z,42.80
2019-06-01T19:15:44.235Z,43.60
2019-06-01T19:18:17.092Z,44.40
2019-06-01T19:20:49.795Z,44.90
2019-06-01T19:23:23.033Z,45.10
2019-06-01T19:25:55.407Z,45.10
2019-06-01T19:28:27.682Z,45.10
2019-06-01T19:30:59.556Z,45.00
2019-06-01T19:33:31.355Z,45.80
2019-06-01T19:36:03.600Z,46.10
2019-06-01T19:38:35.851Z,46.00
2019-06-01T19:41:07.699Z,46.20
2019-06-01T19:43:40.013Z,46.70
2019-06-01T19:46:12.165Z,46.60
2019-06-01T19:48:44.817Z,46.70
2019-06-01T19:51:18.691Z,46.90
2019-06-01T19:53:51.546Z,46.90
2019-06-01T19:56:23.976Z,46.70
2019-06-01T19:58:55.949Z,46.90
2019-06-01T20:01:27.956Z,47.10
2019-06-01T20:04:00.227Z,47.20
2019-06-01T20:06:32.364Z,47.40
2019-06-01T20:09:05.320Z,47.40
2019-06-01T20:11:37.123Z,47.70
2019-06-01T20:14:10.193Z,47.90
2019-06-01T20:16:42.590Z,48.20
2019-06-01T20:19:17.809Z,48.40
2019-06-01T20:21:50.357Z,48.60
2019-06-01T20:24:23.053Z,48.60
2019-06-01T20:26:55.185Z,48.80
2019-06-01T20:29:27.689Z,48.70
2019-06-01T20:32:00.361Z,49.00
2019-06-01T20:34:32.744Z,49.20
2019-06-01T20:37:05.312Z,49.40
2019-06-01T20:39:37.500Z,49.80
2019-06-01T20:42:20.688Z,50.30
2019-06-01T20:44:43.917Z,50.80
2019-06-01T20:47:16.684Z,50.70
2019-06-01T20:49:50.201Z,50.70
2019-06-01T20:52:23.302Z,50.70
2019-06-01T20:54:58.257Z,50.80
2019-06-01T20:57:30.612Z,50.80
2019-06-01T21:00:02.811Z,50.70
2019-06-01T21:02:34.670Z,51.10
2019-06-01T21:05:07.098Z,51.50
2019-06-01T21:07:39.628Z,51.70
2019-06-01T21:10:14.027Z,51.70
2019-06-01T21:12:46.409Z,51.60
2019-06-01T21:15:19.292Z,51.50
2019-06-01T21:17:51.679Z,51.90
2019-06-01T21:20:28.271Z,52.10
2019-06-01T21:22:57.327Z,52.30
2019-06-01T21:25:29.218Z,52.20
2019-06-01T21:28:01.210Z,52.00
2019-06-01T21:30:33.381Z,52.30
2019-06-01T21:33:05.246Z,52.40
2019-06-01T21:35:37.756Z,52.40
2019-06-01T21:38:09.971Z,52.50
2019-06-01T21:40:42.065Z,52.60
2019-06-01T21:43:28.626Z,52.80
2019-06-01T21:45:48.142Z,53.00
2019-06-01T21:48:20.023Z,53.20
2019-06-01T21:50:51.926Z,53.10
2019-06-01T21:53:24.633Z,53.30
2019-06-01T21:55:57.403Z,53.50
2019-06-01T21:58:45.063Z,53.80
2019-06-01T22:01:18.454Z,53.90
2019-06-01T22:03:50.692Z,54.20
2019-06-01T22:06:23.404Z,54.20
2019-06-01T22:08:55.789Z,54.30
2019-06-01T22:11:28.559Z,54.20
2019-06-01T22:14:00.461Z,54.00
2019-06-01T22:16:34.060Z,54.00
2019-06-01T22:19:11.097Z,54.00
2019-06-01T22:21:43.387Z,53.90
2019-06-01T22:24:17.708Z,54.10
2019-06-01T22:26:50.528Z,54.30
2019-06-01T22:29:22.670Z,54.40
2019-06-01T22:31:55.185Z,54.50
2019-06-01T22:34:27.347Z,54.50
2019-06-01T22:36:59.243Z,54.50
2019-06-01T22:39:31.365Z,55.20
2019-06-01T22:42:03.585Z,54.70
2019-06-01T22:44:35.459Z,54.60
2019-06-01T22:47:07.789Z,54.50
2019-06-01T22:49:39.652Z,54.60
2019-06-01T22:52:11.853Z,54.60
2019-06-01T22:54:44.018Z,54.70
2019-06-01T22:57:16.296Z,54.70
2019-06-01T22:59:48.446Z,54.60
2019-06-01T23:02:21.512Z,54.70
2019-06-01T23:04:54.099Z,54.90
2019-06-01T23:07:27.276Z,54.90
2019-06-01T23:09:59.684Z,54.90
2019-06-01T23:12:31.886Z,54.90
2019-06-01T23:15:03.775Z,55.10
2019-06-01T23:17:35.952Z,55.30
2019-06-01T23:20:08.557Z,55.40
2019-06-01T23:22:40.717Z,55.60
2019-06-01T23:25:12.636Z,55.60
2019-06-01T23:27:44.531Z,55.60
2019-06-01T23:30:16.655Z,55.50
2019-06-01T23:32:48.828Z,55.90
2019-06-01T23:35:22.284Z,55.90
2019-06-01T23:37:54.745Z,56.00
2019-06-01T23:40:27.194Z,56.20
2019-06-01T23:42:59.076Z,56.20
2019-06-01T23:45:31.218Z,56.20
2019-06-01T23:48:04.540Z,56.40
2019-06-01T23:50:36.807Z,56.50
2019-06-01T23:53:13.696Z,56.70
2019-06-01T23:55:44.279Z,56.60
2019-06-01T23:58:16.737Z,56.40
